createdAt,value
2019-06-07T00:01:05.193Z,4.53
2019-06-07T00:03:32.879Z,3.60
2019-06-07T00:06:00.585Z,4.33
2019-06-07T00:08:29.486Z,3.97
2019-06-07T00:10:57.434Z,4.00
2019-06-07T00:13:25.335Z,3.40
2019-06-07T00:15:53.155Z,4.10
2019-06-07T00:18:25.880Z,3.87
2019-06-07T00:20:50.615Z,3.20
2019-06-07T00:23:22.095Z,4.30
2019-06-07T00:25:48.219Z,4.00
2019-06-07T00:28:17.338Z,5.17
2019-06-07T00:30:51.630Z,4.17
2019-06-07T00:33:18.725Z,4.27
2019-06-07T00:35:45.365Z,4.50
2019-06-07T00:38:14.275Z,3.77
2019-06-07T00:40:42.320Z,4.30
2019-06-07T00:43:15.915Z,4.07
2019-06-07T00:45:39.611Z,5.70
2019-06-07T00:48:07.546Z,5.50
2019-06-07T00:50:35.519Z,4.60
2019-06-07T00:53:15.499Z,5.40
2019-06-07T00:55:36.085Z,4.57
2019-06-07T00:58:04.252Z,5.03
2019-06-07T01:00:31.937Z,4.00
2019-06-07T01:02:59.785Z,5.20
2019-06-07T01:05:31.392Z,4.80
2019-06-07T01:07:59.357Z,4.50
2019-06-07T01:10:51.719Z,5.00
2019-06-07T01:12:56.647Z,4.50
2019-06-07T01:15:29.063Z,4.50
2019-06-07T01:20:26.832Z,4.43
2019-06-07T01:22:54.956Z,4.40
2019-06-07T01:25:25.955Z,5.23
2019-06-07T01:27:52.311Z,4.07
2019-06-07T01:30:24.160Z,4.37
2019-06-07T01:32:50.208Z,4.73
2019-06-07T01:35:20.214Z,4.00
2019-06-07T01:37:47.711Z,4.10
2019-06-07T01:40:17.178Z,4.50
2019-06-07T01:42:45.491Z,5.30
2019-06-07T01:45:14.609Z,5.30
2019-06-07T01:47:42.292Z,5.30
2019-06-07T01:50:10.535Z,4.40
2019-06-07T01:52:38.375Z,6.03
2019-06-07T01:55:07.147Z,5.00
2019-06-07T01:57:47.609Z,4.30
2019-06-07T02:00:06.784Z,4.73
2019-06-07T02:02:36.385Z,5.10
2019-06-07T02:05:05.943Z,5.57
2019-06-07T02:07:34.035Z,6.00
2019-06-07T02:10:01.924Z,5.23
2019-06-07T02:12:40.194Z,4.33
2019-06-07T02:14:59.595Z,5.83
2019-06-07T02:17:30.155Z,5.70
2019-06-07T02:19:56.911Z,4.43
2019-06-07T02:22:25.695Z,5.00
2019-06-07T02:25:34.483Z,5.07
2019-06-07T02:27:24.619Z,5.00
2019-06-07T02:29:53.559Z,5.30
2019-06-07T02:32:21.774Z,5.17
2019-06-07T02:34:50.823Z,5.67
2019-06-07T02:37:18.610Z,5.90
2019-06-07T02:39:46.316Z,5.27
2019-06-07T02:42:14.176Z,5.07
2019-06-07T02:44:42.067Z,5.80
2019-06-07T02:47:09.777Z,5.77
2019-06-07T02:49:41.389Z,4.90
2019-06-07T02:52:07.585Z,5.20
2019-06-07T02:54:39.739Z,4.83
2019-06-07T02:57:05.370Z,4.70
2019-06-07T02:59:57.609Z,4.73
2019-06-07T03:02:03.056Z,4.53
2019-06-07T03:04:34.901Z,4.30
2019-06-07T03:07:03.387Z,4.73
2019-06-07T03:09:34.402Z,4.83
2019-06-07T03:12:02.445Z,3.80
2019-06-07T03:14:35.545Z,4.60
2019-06-07T03:17:16.260Z,4.20
2019-06-07T03:19:47.089Z,4.77
2019-06-07T03:22:14.809Z,4.90
2019-06-07T03:24:44.680Z,5.13
2019-06-07T03:29:42.564Z,4.87
2019-06-07T03:32:11.383Z,5.00
2019-06-07T03:34:43.520Z,6.20
2019-06-07T03:37:08.903Z,4.37
2019-06-07T03:39:39.358Z,6.00
2019-06-07T03:42:08.524Z,5.50
2019-06-07T03:44:40.656Z,5.70
2019-06-07T03:47:06.126Z,5.77
2019-06-07T03:49:38.743Z,5.20
2019-06-07T03:52:03.567Z,4.70
2019-06-07T03:54:32.113Z,4.63
2019-06-07T03:57:00.620Z,4.27
2019-06-07T03:59:31.339Z,5.63
2019-06-07T04:01:58.140Z,5.50
2019-06-07T04:04:25.895Z,4.60
2019-06-07T04:06:53.771Z,6.13
2019-06-07T04:09:21.491Z,4.77
2019-06-07T04:11:49.155Z,5.60
2019-06-07T04:14:17.184Z,5.67
2019-06-07T04:16:45.176Z,6.13
2019-06-07T04:19:13.029Z,5.60
2019-06-07T04:21:42.975Z,5.13
2019-06-07T04:24:10.740Z,5.77
2019-06-07T04:26:43.142Z,4.77
2019-06-07T04:29:32.568Z,5.40
2019-06-07T04:31:39.905Z,7.07
2019-06-07T04:34:07.842Z,6.20
2019-06-07T04:36:45.925Z,6.97
2019-06-07T04:39:07.433Z,6.67
2019-06-07T04:41:37.272Z,5.70
2019-06-07T04:44:06.616Z,6.83
2019-06-07T04:46:39.845Z,6.27
2019-06-07T04:49:06.360Z,5.63
2019-06-07T04:51:37.248Z,6.40
2019-06-07T04:54:04.913Z,5.80
2019-06-07T04:56:37.617Z,6.03
2019-06-07T04:59:02.816Z,6.70
2019-06-07T05:01:32.142Z,6.40
2019-06-07T05:04:00.304Z,6.73
2019-06-07T05:06:29.930Z,5.90
2019-06-07T05:08:57.574Z,5.50
2019-06-07T05:11:26.993Z,5.77
2019-06-07T05:13:54.699Z,5.77
2019-06-07T05:16:22.405Z,5.77
2019-06-07T05:18:50.308Z,6.10
2019-06-07T05:21:18.015Z,5.97
2019-06-07T05:24:07.470Z,6.23
2019-06-07T05:26:15.463Z,5.67
2019-06-07T05:28:43.212Z,5.80
2019-06-07T05:31:11.639Z,5.73
2019-06-07T05:33:41.294Z,5.70
2019-06-07T05:36:09.109Z,5.60
2019-06-07T05:38:42.211Z,5.30
2019-06-07T05:41:06.728Z,6.07
2019-06-07T05:43:38.560Z,4.97
2019-06-07T05:46:04.514Z,6.70
2019-06-07T05:48:32.199Z,5.90
2019-06-07T05:51:00.218Z,5.20
2019-06-07T05:53:29.827Z,5.50
2019-06-07T05:55:59.121Z,5.93
2019-06-07T05:58:27.007Z,5.40
2019-06-07T06:00:54.774Z,6.00
2019-06-07T06:03:22.566Z,5.23
2019-06-07T06:05:55.440Z,5.27
2019-06-07T06:08:21.717Z,5.30
2019-06-07T06:10:49.474Z,4.63
2019-06-07T06:13:17.499Z,5.80
2019-06-07T06:16:00.487Z,5.00
2019-06-07T06:18:15.112Z,5.33
2019-06-07T06:21:06.778Z,4.20
2019-06-07T06:23:12.874Z,4.40
2019-06-07T06:25:42.692Z,5.27
2019-06-07T06:28:12.677Z,4.40
2019-06-07T06:30:41.229Z,5.00
2019-06-07T06:33:26.910Z,5.30
2019-06-07T06:35:39.863Z,4.57
2019-06-07T06:38:07.992Z,5.20
2019-06-07T06:40:38.280Z,4.17
2019-06-07T06:43:05.593Z,4.03
2019-06-07T06:45:33.405Z,4.03
2019-06-07T06:48:01.226Z,4.73
2019-06-07T06:50:29.249Z,4.90
2019-06-07T06:52:57.081Z,4.40
2019-06-07T06:55:24.767Z,4.43
2019-06-07T06:57:52.988Z,4.10
2019-06-07T07:00:51.934Z,4.47
2019-06-07T07:05:44.065Z,4.40
2019-06-07T07:08:12.763Z,3.70
2019-06-07T07:10:43.137Z,4.50
2019-06-07T07:13:11.194Z,3.93
2019-06-07T07:15:38.894Z,4.50
2019-06-07T07:18:08.758Z,4.23
2019-06-07T07:20:36.287Z,4.70
2019-06-07T07:23:04.528Z,4.47
2019-06-07T07:25:32.235Z,4.53
2019-06-07T07:27:59.987Z,3.80
2019-06-07T07:30:44.813Z,3.43
2019-06-07T07:33:12.948Z,3.33
2019-06-07T07:36:03.668Z,3.60
2019-06-07T07:38:11.684Z,3.40
2019-06-07T07:43:09.344Z,4.00
2019-06-07T07:45:37.353Z,3.57
2019-06-07T07:48:15.429Z,3.77
2019-06-07T07:50:34.625Z,3.60
2019-06-07T07:53:02.412Z,4.60
2019-06-07T07:55:30.325Z,3.63
2019-06-07T07:58:01.772Z,4.60
2019-06-07T08:00:52.449Z,3.90
2019-06-07T08:03:04.123Z,3.20
2019-06-07T08:05:42.361Z,3.90
2019-06-07T08:08:01.613Z,3.37
2019-06-07T08:10:29.519Z,3.50
2019-06-07T08:13:22.709Z,3.50
2019-06-07T08:15:27.568Z,3.27
2019-06-07T08:18:00.429Z,2.70
2019-06-07T08:20:25.644Z,3.30
2019-06-07T08:22:58.832Z,3.50
2019-06-07T08:25:23.256Z,3.17
2019-06-07T08:27:51.892Z,3.10
2019-06-07T08:32:53.062Z,3.37
2019-06-07T08:36:02.979Z,3.63
2019-06-07T08:40:21.281Z,3.80
2019-06-07T08:43:10.643Z,3.70
2019-06-07T08:45:19.736Z,3.97
2019-06-07T08:47:47.445Z,3.70
2019-06-07T08:50:15.674Z,4.20
2019-06-07T08:52:43.499Z,4.20
2019-06-07T08:55:11.699Z,3.20
2019-06-07T08:57:39.447Z,4.40
2019-06-07T09:00:42.185Z,3.80
2019-06-07T09:02:37.322Z,3.83
2019-06-07T09:05:12.109Z,3.43
2019-06-07T09:07:35.665Z,3.97
2019-06-07T09:10:09.598Z,3.60
2019-06-07T09:12:33.761Z,3.70
2019-06-07T09:15:15.161Z,3.57
2019-06-07T09:17:34.179Z,3.90
2019-06-07T09:20:09.414Z,4.00
2019-06-07T09:22:32.116Z,3.83
2019-06-07T09:25:02.821Z,3.07
2019-06-07T09:27:29.417Z,3.70
2019-06-07T09:30:03.198Z,4.10
2019-06-07T09:32:27.062Z,4.27
2019-06-07T09:35:02.500Z,4.23
2019-06-07T09:38:03.641Z,4.17
2019-06-07T09:39:54.162Z,3.37
2019-06-07T09:42:21.919Z,2.80
2019-06-07T09:44:49.825Z,2.47
2019-06-07T09:47:31.228Z,3.47
2019-06-07T09:49:47.117Z,2.50
2019-06-07T09:52:14.911Z,2.33
2019-06-07T09:55:05.949Z,3.10
2019-06-07T09:57:17.591Z,2.70
2019-06-07T09:59:42.166Z,3.30
2019-06-07T10:02:13.784Z,3.07
2019-06-07T10:04:39.623Z,3.47
2019-06-07T10:07:26.898Z,2.90
2019-06-07T10:12:06.881Z,2.57
2019-06-07T10:14:34.698Z,3.50
2019-06-07T10:17:03.205Z,2.50
2019-06-07T10:19:31.970Z,2.90
2019-06-07T10:22:01.244Z,2.27
2019-06-07T10:24:29.232Z,3.07
2019-06-07T10:26:56.959Z,2.03
2019-06-07T10:29:24.768Z,3.00
2019-06-07T10:31:53.275Z,3.33
2019-06-07T10:34:21.028Z,2.20
2019-06-07T10:36:48.747Z,2.70
2019-06-07T10:39:16.553Z,2.37
2019-06-07T10:41:46.368Z,2.80
2019-06-07T10:44:14.194Z,2.93
2019-06-07T10:46:41.897Z,2.27
2019-06-07T10:49:10.139Z,2.80
2019-06-07T10:51:39.482Z,3.00
2019-06-07T10:54:23.550Z,2.70
2019-06-07T10:56:39.959Z,2.27
2019-06-07T10:59:09.299Z,2.43
2019-06-07T11:01:37.340Z,2.87
2019-06-07T11:04:05.728Z,2.80
2019-06-07T11:06:33.569Z,2.63
2019-06-07T11:09:01.464Z,3.00
2019-06-07T11:11:29.178Z,2.23
2019-06-07T11:13:57.104Z,2.67
2019-06-07T11:16:24.792Z,2.87
2019-06-07T11:18:55.411Z,2.33
2019-06-07T11:21:23.092Z,2.20
2019-06-07T11:23:50.979Z,2.50
2019-06-07T11:26:18.770Z,2.80
2019-06-07T11:28:46.467Z,2.53
2019-06-07T11:31:15.148Z,2.57
2019-06-07T11:33:45.687Z,2.70
2019-06-07T11:36:15.497Z,2.70
2019-06-07T11:38:43.414Z,2.83
2019-06-07T11:41:11.626Z,2.67
2019-06-07T11:43:39.369Z,3.07
2019-06-07T11:46:07.289Z,3.50
2019-06-07T11:48:35.006Z,2.90
2019-06-07T11:51:02.806Z,2.80
2019-06-07T11:53:30.471Z,2.90
2019-06-07T11:55:58.409Z,3.00
2019-06-07T11:58:28.350Z,3.47
2019-06-07T12:00:56.337Z,2.93
2019-06-07T12:03:24.127Z,2.10
2019-06-07T12:05:51.919Z,2.70
2019-06-07T12:08:19.629Z,2.07
2019-06-07T12:10:47.342Z,2.67
2019-06-07T12:13:15.915Z,1.90
2019-06-07T12:15:48.622Z,2.53
2019-06-07T12:18:15.184Z,2.00
2019-06-07T12:20:42.994Z,1.90
2019-06-07T12:23:12.031Z,1.97
2019-06-07T12:25:44.866Z,2.20
2019-06-07T12:28:12.720Z,2.13
2019-06-07T12:30:40.541Z,2.13
2019-06-07T12:33:08.255Z,1.90
2019-06-07T12:35:35.955Z,1.27
2019-06-07T12:38:03.945Z,1.80
2019-06-07T12:40:32.414Z,2.00
2019-06-07T12:43:00.853Z,1.60
2019-06-07T12:45:44.472Z,1.73
2019-06-07T12:47:58.255Z,1.33
2019-06-07T12:50:41.904Z,1.50
2019-06-07T12:52:55.640Z,1.30
2019-06-07T12:55:24.831Z,1.63
2019-06-07T12:57:52.895Z,1.63
2019-06-07T13:00:22.389Z,1.60
2019-06-07T13:02:50.675Z,1.60
2019-06-07T13:05:19.833Z,2.20
2019-06-07T13:07:47.919Z,1.87
2019-06-07T13:10:17.912Z,1.83
2019-06-07T13:12:46.119Z,1.70
2019-06-07T13:15:17.666Z,1.93
2019-06-07T13:17:43.838Z,1.60
2019-06-07T13:20:13.559Z,1.67
2019-06-07T13:22:41.460Z,1.80
2019-06-07T13:25:09.851Z,2.20
2019-06-07T13:27:37.754Z,1.60
2019-06-07T13:30:10.177Z,1.40
2019-06-07T13:32:36.502Z,1.60
2019-06-07T13:35:04.906Z,1.63
2019-06-07T13:37:32.628Z,1.50
2019-06-07T13:40:00.493Z,1.30
2019-06-07T13:42:28.619Z,1.30
2019-06-07T13:44:56.542Z,1.40
2019-06-07T13:47:25.377Z,1.30
2019-06-07T13:49:55.317Z,1.33
2019-06-07T13:52:23.076Z,1.50
2019-06-07T13:54:50.795Z,1.60
2019-06-07T13:57:19.852Z,1.67
2019-06-07T13:59:48.005Z,1.87
2019-06-07T14:02:18.536Z,1.47
2019-06-07T14:04:47.073Z,1.70
2019-06-07T14:07:14.782Z,1.40
2019-06-07T14:09:42.460Z,1.47
2019-06-07T14:12:10.350Z,1.30
2019-06-07T14:14:38.030Z,1.00
2019-06-07T14:17:05.894Z,0.90
2019-06-07T14:19:33.815Z,1.07
2019-06-07T14:22:01.838Z,1.10
2019-06-07T14:24:29.622Z,0.80
2019-06-07T14:27:06.835Z,1.00
2019-06-07T14:29:36.068Z,1.10
2019-06-07T14:32:05.980Z,1.20
2019-06-07T14:34:34.204Z,1.10
2019-06-07T14:37:01.936Z,1.30
2019-06-07T14:39:29.707Z,1.10
2019-06-07T14:42:09.314Z,1.10
2019-06-07T14:44:29.841Z,1.40
2019-06-07T14:46:57.767Z,2.07
2019-06-07T14:49:26.345Z,1.30
2019-06-07T14:51:54.277Z,2.23
2019-06-07T14:54:22.047Z,1.57
2019-06-07T14:56:49.733Z,2.23
2019-06-07T14:59:18.590Z,1.20
2019-06-07T15:01:46.306Z,1.50
2019-06-07T15:04:14.175Z,1.90
2019-06-07T15:06:45.504Z,1.33
2019-06-07T15:09:13.255Z,1.57
2019-06-07T15:11:41.171Z,1.20
2019-06-07T15:14:08.939Z,1.73
2019-06-07T15:16:37.935Z,1.30
2019-06-07T15:19:05.922Z,1.53
2019-06-07T15:21:35.009Z,1.17
2019-06-07T15:24:02.864Z,1.30
2019-06-07T15:26:30.753Z,1.30
2019-06-07T15:28:58.459Z,1.03
2019-06-07T15:31:27.751Z,12.73
2019-06-07T15:33:55.779Z,2.50
2019-06-07T15:36:23.748Z,1.57
2019-06-07T15:38:52.415Z,2.00
2019-06-07T15:41:20.151Z,1.53
2019-06-07T15:43:48.087Z,1.60
2019-06-07T15:46:15.921Z,1.53
2019-06-07T15:48:43.638Z,2.13
2019-06-07T15:51:11.350Z,6.67
2019-06-07T15:53:44.017Z,2.70
2019-06-07T15:56:08.773Z,2.30
2019-06-07T15:58:37.219Z,1.70
2019-06-07T16:01:05.151Z,1.33
2019-06-07T16:03:33.786Z,1.27
2019-06-07T16:06:01.673Z,1.30
2019-06-07T16:08:29.565Z,1.87
2019-06-07T16:10:59.491Z,2.03
2019-06-07T16:13:27.315Z,1.50
2019-06-07T16:15:55.060Z,1.70
2019-06-07T16:18:23.106Z,1.50
2019-06-07T16:20:51.019Z,1.60
2019-06-07T16:23:18.866Z,1.47
2019-06-07T16:25:46.660Z,0.93
2019-06-07T16:28:14.380Z,1.90
2019-06-07T16:30:42.686Z,1.00
2019-06-07T16:33:10.592Z,0.90
2019-06-07T16:35:39.027Z,0.90
2019-06-07T16:38:07.072Z,1.30
2019-06-07T16:40:36.296Z,1.30
2019-06-07T16:43:16.593Z,0.70
2019-06-07T16:45:38.689Z,0.90
2019-06-07T16:48:10.422Z,1.10
2019-06-07T16:50:40.930Z,0.83
2019-06-07T16:53:16.759Z,0.90
2019-06-07T16:55:44.916Z,0.70
2019-06-07T16:58:12.744Z,0.73
2019-06-07T17:00:40.702Z,0.53
2019-06-07T17:03:09.639Z,1.03
2019-06-07T17:05:37.777Z,0.80
2019-06-07T17:08:05.797Z,0.70
2019-06-07T17:10:33.724Z,0.70
2019-06-07T17:13:03.303Z,0.70
2019-06-07T17:15:31.104Z,0.60
2019-06-07T17:17:58.809Z,0.80
2019-06-07T17:20:26.641Z,0.70
2019-06-07T17:22:54.364Z,0.90
2019-06-07T17:25:22.438Z,0.80
2019-06-07T17:27:50.359Z,0.60
2019-06-07T17:30:19.104Z,0.70
2019-06-07T17:32:53.826Z,0.80
2019-06-07T17:35:17.584Z,0.80
2019-06-07T17:37:47.218Z,1.00
2019-06-07T17:40:19.492Z,0.57
2019-06-07T17:42:47.233Z,0.50
2019-06-07T17:45:18.146Z,0.50
2019-06-07T17:47:47.680Z,0.43
2019-06-07T17:50:15.841Z,0.40
2019-06-07T17:52:43.949Z,0.70
2019-06-07T17:55:12.141Z,0.80
2019-06-07T17:57:40.036Z,0.90
2019-06-07T18:00:27.604Z,0.60
2019-06-07T18:02:38.537Z,0.50
2019-06-07T18:05:07.071Z,0.50
2019-06-07T18:07:35.435Z,0.50
2019-06-07T18:10:04.982Z,0.40
2019-06-07T18:12:32.706Z,0.60
2019-06-07T18:15:00.618Z,0.40
2019-06-07T18:17:34.640Z,0.40
2019-06-07T18:19:58.535Z,0.53
2019-06-07T18:22:26.406Z,0.43
2019-06-07T18:24:54.722Z,0.57
2019-06-07T18:27:22.791Z,0.60
2019-06-07T18:29:50.868Z,0.53
2019-06-07T18:32:18.789Z,0.40
2019-06-07T18:34:46.798Z,0.70
2019-06-07T18:37:14.643Z,0.50
2019-06-07T18:39:42.370Z,0.37
2019-06-07T18:42:10.332Z,0.53
2019-06-07T18:44:38.078Z,0.60
2019-06-07T18:47:05.960Z,0.70
2019-06-07T18:49:36.068Z,0.57
2019-06-07T18:52:27.873Z,0.40
2019-06-07T18:54:55.697Z,0.70
2019-06-07T18:57:23.492Z,0.70
2019-06-07T18:59:52.307Z,0.80
2019-06-07T19:02:20.432Z,0.60
2019-06-07T19:04:48.161Z,0.43
2019-06-07T19:07:16.057Z,0.60
2019-06-07T19:09:43.884Z,0.57
2019-06-07T19:12:13.656Z,0.53
2019-06-07T19:14:41.368Z,0.77
2019-06-07T19:17:09.109Z,0.50
2019-06-07T19:19:37.059Z,0.50
2019-06-07T19:22:04.886Z,0.70
2019-06-07T19:24:32.800Z,0.60
2019-06-07T19:27:00.991Z,0.70
2019-06-07T19:29:28.815Z,0.70
2019-06-07T19:31:57.014Z,0.63
2019-06-07T19:34:25.347Z,0.60
2019-06-07T19:36:53.575Z,0.60
2019-06-07T19:39:24.115Z,0.60
2019-06-07T19:41:51.947Z,0.53
2019-06-07T19:44:19.726Z,0.90
2019-06-07T19:46:50.721Z,0.60
2019-06-07T19:49:19.000Z,0.70
2019-06-07T19:51:47.014Z,0.80
2019-06-07T19:54:14.725Z,0.70
2019-06-07T19:56:42.447Z,0.70
2019-06-07T19:59:11.496Z,0.90
2019-06-07T20:01:40.467Z,0.70
2019-06-07T20:04:08.260Z,0.57
2019-06-07T20:06:36.163Z,0.80
2019-06-07T20:09:06.533Z,0.43
2019-06-07T20:11:34.363Z,0.50
2019-06-07T20:14:03.029Z,0.43
2019-06-07T20:16:30.982Z,0.70
2019-06-07T20:18:58.772Z,0.70
2019-06-07T20:21:26.646Z,0.90
2019-06-07T20:23:56.768Z,1.20
2019-06-07T20:26:24.705Z,0.67
2019-06-07T20:28:54.382Z,0.57
2019-06-07T20:31:23.425Z,0.40
2019-06-07T20:33:51.199Z,0.50
2019-06-07T20:36:19.225Z,0.40
2019-06-07T20:38:46.984Z,0.53
2019-06-07T20:41:14.787Z,0.40
2019-06-07T20:43:42.733Z,0.50
2019-06-07T20:46:11.797Z,0.50
2019-06-07T20:48:39.551Z,0.50
2019-06-07T20:51:08.657Z,0.50
2019-06-07T20:53:36.965Z,0.50
2019-06-07T20:56:04.832Z,0.50
2019-06-07T20:58:33.834Z,0.40
2019-06-07T21:01:02.782Z,0.80
2019-06-07T21:03:31.911Z,0.50
2019-06-07T21:05:59.648Z,0.50
2019-06-07T21:08:27.591Z,0.50
2019-06-07T21:10:55.333Z,0.60
2019-06-07T21:13:23.198Z,0.90
2019-06-07T21:15:50.917Z,0.57
2019-06-07T21:18:19.973Z,0.50
2019-06-07T21:20:48.244Z,0.50
2019-06-07T21:23:18.762Z,0.50
2019-06-07T21:25:46.710Z,0.73
2019-06-07T21:28:14.735Z,0.73
2019-06-07T21:30:42.434Z,0.50
2019-06-07T21:33:11.789Z,0.60
2019-06-07T21:35:40.393Z,0.63
2019-06-07T21:38:08.104Z,0.60
2019-06-07T21:40:35.846Z,0.57
2019-06-07T21:43:04.298Z,0.60
2019-06-07T21:45:32.323Z,0.60
2019-06-07T21:48:00.047Z,0.50
2019-06-07T21:50:27.945Z,0.60
2019-06-07T21:52:55.641Z,0.93
2019-06-07T21:55:23.338Z,0.60
2019-06-07T21:57:51.234Z,0.43
2019-06-07T22:00:25.763Z,0.50
2019-06-07T22:02:53.929Z,0.60
2019-06-07T22:05:21.794Z,0.40
2019-06-07T22:07:51.351Z,0.73
2019-06-07T22:10:19.279Z,0.70
2019-06-07T22:12:47.104Z,0.60
2019-06-07T22:15:32.144Z,0.33
2019-06-07T22:17:47.214Z,0.57
2019-06-07T22:20:15.207Z,0.70
2019-06-07T22:22:42.996Z,0.50
2019-06-07T22:25:11.139Z,0.63
2019-06-07T22:27:39.212Z,0.47
2019-06-07T22:30:08.527Z,0.40
2019-06-07T22:32:36.581Z,0.60
2019-06-07T22:35:04.775Z,0.43
2019-06-07T22:37:32.745Z,0.40
2019-06-07T22:40:00.470Z,0.60
2019-06-07T22:42:28.276Z,0.60
2019-06-07T22:44:56.138Z,0.37
2019-06-07T22:47:23.858Z,0.53
2019-06-07T22:49:59.395Z,0.70
2019-06-07T22:52:27.321Z,0.50
2019-06-07T22:55:01.191Z,0.40
2019-06-07T22:57:32.723Z,0.40
2019-06-07T23:00:08.740Z,0.50
2019-06-07T23:02:34.502Z,0.40
2019-06-07T23:05:04.914Z,0.47
2019-06-07T23:07:33.716Z,0.60
2019-06-07T23:10:08.997Z,0.40
2019-06-07T23:12:42.347Z,0.50
2019-06-07T23:15:11.505Z,0.50
2019-06-07T23:17:40.631Z,0.50
2019-06-07T23:20:11.828Z,0.60
2019-06-07T23:22:39.917Z,0.43
2019-06-07T23:25:15.037Z,0.40
2019-06-07T23:27:42.651Z,0.40
2019-06-07T23:30:14.480Z,0.40
2019-06-07T23:32:45.425Z,0.60
2019-06-07T23:35:14.870Z,0.40
2019-06-07T23:37:43.009Z,0.60
2019-06-07T23:40:13.296Z,0.47
2019-06-07T23:42:43.141Z,0.40
2019-06-07T23:45:13.793Z,0.50
2019-06-07T23:47:44.010Z,0.40
2019-06-07T23:50:19.983Z,0.40
2019-06-07T23:52:48.659Z,0.67
2019-06-07T23:55:41.557Z,0.40
2019-06-07T23:58:09.438Z,0.40
